Time;durP1;ratioP1;P1;durP2;ratioP2;P2;SDS_P1;SDS_P2;PMS_P1;PMS_P2;Temp;Humidity;BMP_temperature;BMP_pressure;BME280_temperature;BME280_humidity;BME280_pressure;Samples;Min_cycle;Max_cycle;Signal;HPM_P1;HPM_P2
2023/09/27 00:00:30;;;;;;;451.83;109.82;;;;;;;;;;5034916;28;20132;-53
2023/09/27 00:02:55;;;;;;;457.15;109.00;;;;;;;;;;5035078;28;20041;-52
2023/09/27 00:05:21;;;;;;;448.58;110.47;;;;;;;;;;5035067;28;20025;-53
2023/09/27 00:07:46;;;;;;;493.63;111.88;;;;;;;;;;5035137;28;20013;-53
2023/09/27 00:10:11;;;;;;;437.90;111.60;;;;;;;;;;5035274;28;20033;-53
2023/09/27 00:12:37;;;;;;;456.63;114.57;;;;;;;;;;5033767;28;20760;-52
2023/09/27 00:15:03;;;;;;;467.25;112.70;;;;;;;;;;5035806;28;20917;-53
2023/09/27 00:17:29;;;;;;;462.48;112.18;;;;;;;;;;5034113;28;20195;-52
2023/09/27 00:19:54;;;;;;;419.48;110.13;;;;;;;;;;5034443;28;20076;-54
2023/09/27 00:22:19;;;;;;;424.58;111.50;;;;;;;;;;5035377;28;20025;-52
2023/09/27 00:24:45;;;;;;;496.35;112.70;;;;;;;;;;5034325;28;20096;-53
2023/09/27 00:27:13;;;;;;;426.33;110.53;;;;;;;;;;5034876;28;20119;-53
2023/09/27 00:29:38;;;;;;;472.77;113.35;;;;;;;;;;5033463;28;20464;-52
2023/09/27 00:32:03;;;;;;;489.73;112.03;;;;;;;;;;5033417;28;20576;-52
2023/09/27 00:34:28;;;;;;;450.85;111.50;;;;;;;;;;5034635;28;20017;-53
2023/09/27 00:36:54;;;;;;;444.45;111.22;;;;;;;;;;5033489;28;20347;-51
2023/09/27 00:39:19;;;;;;;466.30;111.53;;;;;;;;;;5035118;28;20475;-53
2023/09/27 00:41:44;;;;;;;510.73;115.03;;;;;;;;;;5033650;28;20306;-53
2023/09/27 00:44:09;;;;;;;422.03;110.03;;;;;;;;;;5034981;28;20544;-53
2023/09/27 00:46:35;;;;;;;472.30;112.53;;;;;;;;;;5034588;28;20279;-54
2023/09/27 00:49:00;;;;;;;452.45;113.03;;;;;;;;;;5035815;28;20258;-53
2023/09/27 00:51:26;;;;;;;425.08;110.97;;;;;;;;;;5033811;28;20041;-52
2023/09/27 00:53:52;;;;;;;522.00;114.80;;;;;;;;;;5033611;28;20027;-53
2023/09/27 00:56:17;;;;;;;400.10;109.00;;;;;;;;;;5033187;28;20579;-52
2023/09/27 00:58:43;;;;;;;442.90;110.65;;;;;;;;;;5035669;28;20183;-53
2023/09/27 01:01:09;;;;;;;476.87;114.43;;;;;;;;;;5035864;28;20440;-54
2023/09/27 01:03:34;;;;;;;397.67;110.85;;;;;;;;;;5035879;28;20307;-54
2023/09/27 01:05:59;;;;;;;430.90;112.55;;;;;;;;;;5036287;28;20061;-54
2023/09/27 01:08:24;;;;;;;423.83;100.82;;;;;;;;;;5036643;28;20020;-54
2023/09/27 01:10:50;;;;;;;369.55;91.68;;;;;;;;;;5036068;28;20091;-53
2023/09/27 01:13:15;;;;;;;386.65;96.13;;;;;;;;;;5037282;28;20017;-53
2023/09/27 01:15:40;;;;;;;509.35;106.65;;;;;;;;;;5035376;28;20116;-52
2023/09/27 01:18:05;;;;;;;400.90;103.93;;;;;;;;;;5036297;28;20025;-54
2023/09/27 01:20:32;;;;;;;348.30;103.30;;;;;;;;;;5036141;28;20259;-54
2023/09/27 01:23:07;;;;;;;461.33;106.68;;;;;;;;;;5035428;28;20271;-52
2023/09/27 01:25:33;;;;;;;447.13;105.13;;;;;;;;;;5035842;28;20257;-54
2023/09/27 01:28:03;;;;;;;392.90;105.47;;;;;;;;;;5035888;28;20017;-54
2023/09/27 01:30:32;;;;;;;422.38;107.65;;;;;;;;;;5034891;28;20502;-56
2023/09/27 01:33:05;;;;;;;392.88;103.32;;;;;;;;;;5035163;28;20040;-54
2023/09/27 01:35:31;;;;;;;482.73;108.95;;;;;;;;;;5034900;28;20029;-53
2023/09/27 01:37:56;;;;;;;404.52;105.28;;;;;;;;;;5037654;28;20021;-55
2023/09/27 01:40:26;;;;;;;412.15;105.88;;;;;;;;;;5039101;28;20040;-53
2023/09/27 01:42:51;;;;;;;459.17;110.07;;;;;;;;;;5038522;28;20636;-53
2023/09/27 01:45:17;;;;;;;360.33;105.15;;;;;;;;;;5040325;28;20643;-52
2023/09/27 01:47:42;;;;;;;516.88;111.95;;;;;;;;;;5038566;28;20074;-53
2023/09/27 01:50:08;;;;;;;397.33;107.03;;;;;;;;;;5039193;28;20106;-53
2023/09/27 01:52:33;;;;;;;431.65;108.45;;;;;;;;;;5039608;28;20387;-52
2023/09/27 01:54:59;;;;;;;465.25;109.35;;;;;;;;;;5038525;28;20029;-51
2023/09/27 01:57:24;;;;;;;400.87;107.07;;;;;;;;;;5039057;28;20033;-54
2023/09/27 01:59:49;;;;;;;489.77;112.10;;;;;;;;;;5038616;28;20752;-53
2023/09/27 02:02:14;;;;;;;444.20;108.95;;;;;;;;;;5038526;28;20078;-52
2023/09/27 02:04:40;;;;;;;496.57;112.80;;;;;;;;;;5037521;28;20443;-52
2023/09/27 02:07:05;;;;;;;403.77;108.15;;;;;;;;;;5039151;28;20692;-52
2023/09/27 02:09:30;;;;;;;470.60;111.13;;;;;;;;;;5039595;28;20041;-53
2023/09/27 02:11:55;;;;;;;374.60;106.95;;;;;;;;;;5038507;28;20578;-53
2023/09/27 02:14:20;;;;;;;422.47;109.40;;;;;;;;;;5038759;28;20490;-53
2023/09/27 02:16:47;;;;;;;502.93;113.00;;;;;;;;;;5037302;28;20800;-54
2023/09/27 02:19:12;;;;;;;430.13;107.40;;;;;;;;;;5021690;28;20433;-55
2023/09/27 02:21:39;;;;;;;410.40;108.18;;;;;;;;;;5037323;28;20120;-53
2023/09/27 02:24:04;;;;;;;439.30;110.97;;;;;;;;;;5038039;28;20036;-53
2023/09/27 02:26:30;;;;;;;398.13;108.68;;;;;;;;;;5038604;28;20304;-53
2023/09/27 02:28:55;;;;;;;408.27;108.40;;;;;;;;;;5038742;28;21810;-56
2023/09/27 02:31:20;;;;;;;416.37;107.17;;;;;;;;;;5037806;28;20114;-53
2023/09/27 02:33:45;;;;;;;452.23;111.43;;;;;;;;;;5037829;28;20247;-54
2023/09/27 02:36:11;;;;;;;399.67;107.93;;;;;;;;;;5037793;28;20259;-56
2023/09/27 02:38:36;;;;;;;447.92;109.30;;;;;;;;;;5038773;28;20386;-53
2023/09/27 02:41:02;;;;;;;404.58;108.43;;;;;;;;;;5037144;28;20108;-52
2023/09/27 02:43:27;;;;;;;420.33;109.55;;;;;;;;;;5038380;28;20013;-54
2023/09/27 02:45:53;;;;;;;494.83;113.32;;;;;;;;;;5037607;28;20029;-53
2023/09/27 02:48:18;;;;;;;432.98;109.75;;;;;;;;;;5037232;28;20013;-52
2023/09/27 02:50:47;;;;;;;526.83;115.70;;;;;;;;;;5017307;28;20025;-53
2023/09/27 02:53:13;;;;;;;475.63;114.57;;;;;;;;;;5035273;28;20267;-53
2023/09/27 02:55:38;;;;;;;442.92;112.65;;;;;;;;;;5035813;28;20396;-52
2023/09/27 02:58:05;;;;;;;445.42;111.85;;;;;;;;;;5036240;28;20071;-54
2023/09/27 03:00:30;;;;;;;486.23;115.00;;;;;;;;;;5034388;28;20465;-52
2023/09/27 03:02:56;;;;;;;569.13;117.70;;;;;;;;;;5034978;28;20484;-53
2023/09/27 03:05:21;;;;;;;430.50;111.22;;;;;;;;;;5036422;28;20044;-53
2023/09/27 03:07:48;;;;;;;518.63;117.05;;;;;;;;;;5035614;28;20039;-55
2023/09/27 03:10:15;;;;;;;429.50;113.30;;;;;;;;;;5034883;28;20032;-53
2023/09/27 03:12:41;;;;;;;445.40;112.55;;;;;;;;;;5034793;28;20698;-53
2023/09/27 03:15:11;;;;;;;479.95;113.72;;;;;;;;;;5035530;28;20223;-52
2023/09/27 03:17:36;;;;;;;458.15;112.63;;;;;;;;;;5035817;28;20060;-52
2023/09/27 03:20:01;;;;;;;452.20;112.43;;;;;;;;;;5034219;28;20036;-52
2023/09/27 03:22:27;;;;;;;486.60;115.18;;;;;;;;;;5034833;28;20192;-53
2023/09/27 03:24:52;;;;;;;502.60;116.30;;;;;;;;;;5035194;28;20017;-52
2023/09/27 03:27:18;;;;;;;408.27;112.03;;;;;;;;;;5035589;28;20703;-51
2023/09/27 03:29:43;;;;;;;515.85;115.97;;;;;;;;;;5034165;28;20266;-54
2023/09/27 03:32:09;;;;;;;385.17;111.37;;;;;;;;;;5035299;28;20033;-53
2023/09/27 03:34:35;;;;;;;451.58;112.45;;;;;;;;;;5034803;28;20346;-53
2023/09/27 03:37:01;;;;;;;467.65;115.10;;;;;;;;;;5032760;28;20033;-54
2023/09/27 03:39:28;;;;;;;420.00;113.50;;;;;;;;;;5034868;28;20035;-52
2023/09/27 03:41:53;;;;;;;542.88;118.85;;;;;;;;;;5031774;28;20796;-53
2023/09/27 03:44:19;;;;;;;493.15;116.40;;;;;;;;;;5034867;28;20025;-53
2023/09/27 03:46:44;;;;;;;503.75;115.20;;;;;;;;;;5033649;28;20037;-53
2023/09/27 03:49:12;;;;;;;392.90;110.20;;;;;;;;;;5036094;28;20142;-53
2023/09/27 03:51:38;;;;;;;431.63;113.82;;;;;;;;;;5036200;28;20880;-53
2023/09/27 03:54:03;;;;;;;431.30;112.47;;;;;;;;;;5036316;28;20029;-54
2023/09/27 03:56:28;;;;;;;456.95;113.50;;;;;;;;;;5036506;28;20781;-54
2023/09/27 03:58:53;;;;;;;541.92;120.50;;;;;;;;;;5033403;28;20021;-54
2023/09/27 04:01:19;;;;;;;440.37;115.47;;;;;;;;;;5034794;28;20540;-52
2023/09/27 04:03:45;;;;;;;420.20;114.55;;;;;;;;;;5034391;28;20244;-52
2023/09/27 04:06:10;;;;;;;471.25;116.50;;;;;;;;;;5034442;28;20212;-55
2023/09/27 04:08:36;;;;;;;426.08;116.13;;;;;;;;;;5035174;28;20491;-53
2023/09/27 04:11:03;;;;;;;447.60;116.03;;;;;;;;;;5033394;28;20526;-53
2023/09/27 04:13:28;;;;;;;459.45;117.65;;;;;;;;;;5034589;28;20550;-55
2023/09/27 04:15:53;;;;;;;476.87;117.23;;;;;;;;;;5033479;28;20258;-54
2023/09/27 04:18:19;;;;;;;419.53;116.13;;;;;;;;;;5036863;28;20695;-52
2023/09/27 04:20:44;;;;;;;484.23;117.55;;;;;;;;;;5034578;28;20685;-56
2023/09/27 04:23:09;;;;;;;362.48;110.00;;;;;;;;;;5036802;28;20013;-53
2023/09/27 04:25:34;;;;;;;443.70;114.93;;;;;;;;;;5035414;28;20037;-55
2023/09/27 04:28:00;;;;;;;548.53;119.82;;;;;;;;;;5035014;28;20628;-55
2023/09/27 04:30:26;;;;;;;493.38;118.50;;;;;;;;;;5032418;28;20026;-56
2023/09/27 04:32:51;;;;;;;557.70;120.32;;;;;;;;;;5033167;28;20221;-54
2023/09/27 04:35:17;;;;;;;480.50;118.93;;;;;;;;;;5034002;28;20017;-55
2023/09/27 04:37:42;;;;;;;412.20;112.55;;;;;;;;;;5033583;28;20040;-54
2023/09/27 04:40:11;;;;;;;460.48;115.32;;;;;;;;;;5032691;28;20017;-55
2023/09/27 04:42:36;;;;;;;475.85;118.43;;;;;;;;;;5036343;28;20013;-53
2023/09/27 04:45:02;;;;;;;467.98;118.45;;;;;;;;;;5034338;28;21027;-55
2023/09/27 04:47:28;;;;;;;428.52;115.65;;;;;;;;;;5035374;28;20029;-53
2023/09/27 04:49:53;;;;;;;529.03;121.53;;;;;;;;;;5035205;28;20490;-54
2023/09/27 04:52:20;;;;;;;416.50;116.97;;;;;;;;;;5035721;28;20279;-54
2023/09/27 04:54:45;;;;;;;448.73;119.65;;;;;;;;;;5034790;28;20102;-55
2023/09/27 04:57:11;;;;;;;410.40;114.28;;;;;;;;;;5035556;28;20033;-55
2023/09/27 04:59:37;;;;;;;420.67;116.33;;;;;;;;;;5034197;28;20032;-54
2023/09/27 05:02:02;;;;;;;565.13;122.18;;;;;;;;;;5033218;28;20811;-53
2023/09/27 05:04:28;;;;;;;420.85;115.57;;;;;;;;;;5034865;28;20088;-55
2023/09/27 05:06:53;;;;;;;562.17;123.38;;;;;;;;;;5032794;28;20625;-55
2023/09/27 05:09:18;;;;;;;473.97;116.97;;;;;;;;;;5032989;28;20028;-54
2023/09/27 05:11:46;;;;;;;414.02;113.88;;;;;;;;;;5033380;28;20344;-55
2023/09/27 05:14:11;;;;;;;454.33;115.78;;;;;;;;;;5036718;28;20045;-55
2023/09/27 05:16:37;;;;;;;512.30;118.40;;;;;;;;;;5036787;28;20047;-55
2023/09/27 05:19:02;;;;;;;561.97;120.25;;;;;;;;;;5036417;28;20090;-56
2023/09/27 05:21:27;;;;;;;450.00;117.32;;;;;;;;;;5037049;28;20025;-53
2023/09/27 05:23:53;;;;;;;545.90;120.53;;;;;;;;;;5036828;28;20563;-54
2023/09/27 05:26:18;;;;;;;462.47;118.87;;;;;;;;;;5037097;28;20027;-54
2023/09/27 05:28:43;;;;;;;436.63;116.53;;;;;;;;;;5037331;28;20383;-56
2023/09/27 05:31:09;;;;;;;417.92;116.43;;;;;;;;;;5035587;28;20068;-54
2023/09/27 05:33:34;;;;;;;454.73;116.55;;;;;;;;;;5037385;28;20356;-55
2023/09/27 05:35:59;;;;;;;555.50;122.78;;;;;;;;;;5035013;28;20071;-56
2023/09/27 05:38:24;;;;;;;464.23;120.05;;;;;;;;;;5036651;28;20017;-54
2023/09/27 05:40:50;;;;;;;478.05;125.07;;;;;;;;;;5037061;28;20036;-55
2023/09/27 05:43:15;;;;;;;446.53;119.73;;;;;;;;;;5037337;28;20139;-55
2023/09/27 05:45:40;;;;;;;500.00;122.40;;;;;;;;;;5036376;28;20270;-55
2023/09/27 05:48:05;;;;;;;457.02;118.88;;;;;;;;;;5036419;28;20501;-55
2023/09/27 05:50:31;;;;;;;473.70;118.20;;;;;;;;;;5036673;28;20463;-55
2023/09/27 05:52:56;;;;;;;557.90;120.55;;;;;;;;;;5038516;28;20057;-54
2023/09/27 05:55:21;;;;;;;435.05;115.30;;;;;;;;;;5020273;28;20013;-54
2023/09/27 05:57:47;;;;;;;410.63;113.60;;;;;;;;;;5037610;28;20017;-55
2023/09/27 06:00:22;;;;;;;444.25;115.28;;;;;;;;;;5038435;28;20319;-53
2023/09/27 06:02:47;;;;;;;431.23;112.68;;;;;;;;;;5038119;28;20074;-56
2023/09/27 06:05:12;;;;;;;426.42;113.00;;;;;;;;;;5038669;28;20017;-54
2023/09/27 06:07:38;;;;;;;467.52;112.68;;;;;;;;;;5038115;28;20415;-54
2023/09/27 06:10:03;;;;;;;519.10;114.53;;;;;;;;;;5038354;28;20017;-55
2023/09/27 06:12:29;;;;;;;433.65;108.75;;;;;;;;;;5037895;28;20033;-55
2023/09/27 06:14:54;;;;;;;506.88;111.72;;;;;;;;;;5036688;28;20542;-54
2023/09/27 06:17:19;;;;;;;416.33;107.90;;;;;;;;;;5037167;28;20518;-56
2023/09/27 06:19:44;;;;;;;443.37;108.23;;;;;;;;;;5037022;28;20656;-56
2023/09/27 06:22:13;;;;;;;485.93;109.43;;;;;;;;;;5035154;28;20685;-55
2023/09/27 06:24:39;;;;;;;426.05;106.95;;;;;;;;;;5036179;28;20748;-55
2023/09/27 06:27:04;;;;;;;485.88;108.30;;;;;;;;;;5034659;28;20029;-55
2023/09/27 06:29:29;;;;;;;478.10;107.57;;;;;;;;;;5036339;28;20033;-55
2023/09/27 06:31:54;;;;;;;576.50;113.43;;;;;;;;;;5035012;28;20279;-54
2023/09/27 06:34:20;;;;;;;442.35;106.10;;;;;;;;;;5036224;28;20264;-56
2023/09/27 06:36:49;;;;;;;455.08;106.78;;;;;;;;;;5035876;28;20443;-55
2023/09/27 06:39:19;;;;;;;410.27;102.75;;;;;;;;;;5036134;28;20352;-54
2023/09/27 06:41:45;;;;;;;426.63;103.20;;;;;;;;;;5035628;28;20542;-52
2023/09/27 06:44:10;;;;;;;470.55;103.22;;;;;;;;;;5035152;28;20742;-52
2023/09/27 06:46:36;;;;;;;445.77;101.50;;;;;;;;;;5035643;28;20040;-53
2023/09/27 06:49:01;;;;;;;479.80;102.93;;;;;;;;;;5034292;28;20108;-51
2023/09/27 06:51:27;;;;;;;471.75;101.10;;;;;;;;;;5033569;28;20442;-55
2023/09/27 06:53:52;;;;;;;419.07;96.80;;;;;;;;;;5033952;28;20125;-54
2023/09/27 06:56:17;;;;;;;362.50;95.37;;;;;;;;;;5035593;28;20704;-56
2023/09/27 06:58:43;;;;;;;411.02;94.72;;;;;;;;;;5036920;28;20291;-56
2023/09/27 07:01:10;;;;;;;448.20;94.90;;;;;;;;;;5017372;28;20025;-54
2023/09/27 07:03:36;;;;;;;332.05;90.45;;;;;;;;;;5035568;28;20036;-55
2023/09/27 07:06:02;;;;;;;481.85;96.63;;;;;;;;;;5038745;28;20036;-54
2023/09/27 07:08:28;;;;;;;365.65;89.30;;;;;;;;;;5039932;28;20021;-55
2023/09/27 07:10:53;;;;;;;384.60;90.95;;;;;;;;;;5038559;28;20029;-52
2023/09/27 07:13:18;;;;;;;299.47;86.83;;;;;;;;;;5041116;28;20028;-53
2023/09/27 07:15:48;;;;;;;297.67;84.73;;;;;;;;;;5040319;28;20268;-53
2023/09/27 07:18:13;;;;;;;359.63;87.05;;;;;;;;;;5039333;28;20112;-54
2023/09/27 07:20:40;;;;;;;310.05;85.35;;;;;;;;;;5041206;28;20124;-54
2023/09/27 07:23:07;;;;;;;452.55;90.90;;;;;;;;;;5040240;28;20532;-55
2023/09/27 07:25:36;;;;;;;407.90;88.53;;;;;;;;;;5022389;28;20037;-54
2023/09/27 07:28:05;;;;;;;358.27;89.53;;;;;;;;;;5039531;28;20013;-53
2023/09/27 07:30:33;;;;;;;329.20;89.07;;;;;;;;;;5040231;28;20044;-53
2023/09/27 07:32:58;;;;;;;487.45;95.38;;;;;;;;;;5038710;28;20108;-55
2023/09/27 07:35:27;;;;;;;349.35;91.20;;;;;;;;;;5038611;28;20107;-54
2023/09/27 07:37:52;;;;;;;402.77;92.68;;;;;;;;;;5037322;28;20013;-54
2023/09/27 07:40:17;;;;;;;379.23;93.40;;;;;;;;;;5038819;28;20031;-54
2023/09/27 07:42:44;;;;;;;370.83;88.80;;;;;;;;;;5038757;28;20693;-53
2023/09/27 07:45:31;;;;;;;450.25;92.13;;;;;;;;;;5036457;28;20274;-52
2023/09/27 07:47:57;;;;;;;412.02;91.20;;;;;;;;;;5038165;28;20040;-53
2023/09/27 07:50:33;;;;;;;383.80;85.18;;;;;;;;;;5039655;28;20076;-56
2023/09/27 07:52:59;;;;;;;444.08;87.53;;;;;;;;;;5038553;28;20029;-54
2023/09/27 07:55:24;;;;;;;381.05;162.15;;;;;;;;;;5039351;28;20247;-53
2023/09/27 07:57:52;;;;;;;322.63;78.55;;;;;;;;;;5040197;28;20027;-54
2023/09/27 08:00:19;;;;;;;264.30;76.07;;;;;;;;;;5006340;28;20471;-53
2023/09/27 08:02:45;;;;;;;280.65;72.75;;;;;;;;;;5040679;28;20032;-54
2023/09/27 08:05:10;;;;;;;505.80;266.60;;;;;;;;;;5037486;28;20529;-55
2023/09/27 08:07:36;;;;;;;436.52;218.65;;;;;;;;;;5040014;28;20368;-53
2023/09/27 08:10:02;;;;;;;374.13;116.95;;;;;;;;;;5038335;28;20020;-53
2023/09/27 08:12:29;;;;;;;340.08;120.88;;;;;;;;;;5038343;28;20037;-53
2023/09/27 08:14:54;;;;;;;262.90;78.90;;;;;;;;;;5037588;28;20104;-54
2023/09/27 08:17:20;;;;;;;365.90;184.30;;;;;;;;;;5038120;28;20037;-54
2023/09/27 08:19:45;;;;;;;403.45;252.60;;;;;;;;;;5039751;28;20022;-53
2023/09/27 08:22:10;;;;;;;623.33;389.77;;;;;;;;;;5038059;28;20395;-53
2023/09/27 08:24:36;;;;;;;479.87;352.17;;;;;;;;;;5039286;28;20328;-55
2023/09/27 08:27:01;;;;;;;533.08;251.10;;;;;;;;;;5038520;28;20024;-53
2023/09/27 08:29:27;;;;;;;423.05;280.58;;;;;;;;;;5038747;28;20009;-55
2023/09/27 08:31:52;;;;;;;351.58;168.57;;;;;;;;;;5020776;28;20049;-56
2023/09/27 08:34:18;;;;;;;316.67;153.50;;;;;;;;;;5038689;28;20403;-53
2023/09/27 08:36:43;;;;;;;354.15;179.88;;;;;;;;;;5038758;28;20595;-53
2023/09/27 08:39:09;;;;;;;576.70;326.93;;;;;;;;;;5038328;28;20118;-55
2023/09/27 08:41:35;;;;;;;389.40;219.07;;;;;;;;;;5038726;28;20876;-55
2023/09/27 08:44:01;;;;;;;358.98;134.85;;;;;;;;;;5038308;28;20029;-54
2023/09/27 08:46:30;;;;;;;494.80;391.33;;;;;;;;;;5039099;28;20398;-55
2023/09/27 08:48:57;;;;;;;298.95;119.80;;;;;;;;;;5041852;28;20142;-53
2023/09/27 08:51:23;;;;;;;453.77;308.35;;;;;;;;;;5042977;28;20065;-54
2023/09/27 08:53:49;;;;;;;326.52;105.30;;;;;;;;;;5042311;28;20029;-55
2023/09/27 08:56:16;;;;;;;498.63;233.48;;;;;;;;;;5041091;28;20092;-55
2023/09/27 08:58:43;;;;;;;318.52;153.77;;;;;;;;;;5044525;28;20020;-55
2023/09/27 09:01:09;;;;;;;540.75;285.17;;;;;;;;;;5041370;28;20033;-54
2023/09/27 09:03:36;;;;;;;349.92;164.18;;;;;;;;;;5043717;28;20029;-55
2023/09/27 09:06:04;;;;;;;522.05;241.57;;;;;;;;;;5042594;28;20047;-53
2023/09/27 09:08:30;;;;;;;482.65;280.95;;;;;;;;;;5043584;28;20013;-55
2023/09/27 09:10:55;;;;;;;278.88;83.55;;;;;;;;;;5043156;28;20032;-54
2023/09/27 09:13:22;;;;;;;358.92;217.68;;;;;;;;;;5042550;28;20024;-54
2023/09/27 09:15:48;;;;;;;402.17;202.88;;;;;;;;;;5042220;28;20200;-55
2023/09/27 09:18:32;;;;;;;343.10;117.15;;;;;;;;;;5043054;28;20131;-55
2023/09/27 09:20:59;;;;;;;451.88;246.73;;;;;;;;;;5041452;28;20032;-53
2023/09/27 09:23:30;;;;;;;300.10;100.65;;;;;;;;;;5043010;28;20048;-55
2023/09/27 09:25:56;;;;;;;401.15;212.10;;;;;;;;;;5041681;28;20033;-55
2023/09/27 09:28:22;;;;;;;352.77;210.70;;;;;;;;;;5040870;28;20024;-54
2023/09/27 09:30:47;;;;;;;260.60;94.85;;;;;;;;;;5042283;28;20044;-54
2023/09/27 09:33:16;;;;;;;626.73;382.07;;;;;;;;;;5023616;28;20094;-54
2023/09/27 09:35:42;;;;;;;495.58;305.60;;;;;;;;;;5041765;28;20091;-54
2023/09/27 09:38:07;;;;;;;597.10;380.40;;;;;;;;;;5041998;28;20017;-55
2023/09/27 09:40:34;;;;;;;449.57;333.10;;;;;;;;;;5024700;28;20032;-56
2023/09/27 09:43:00;;;;;;;458.45;226.48;;;;;;;;;;5040455;28;20296;-55
2023/09/27 09:45:26;;;;;;;310.70;143.93;;;;;;;;;;5042118;28;20036;-56
2023/09/27 09:47:52;;;;;;;434.85;303.73;;;;;;;;;;5041435;28;20025;-55
2023/09/27 09:50:18;;;;;;;638.88;402.20;;;;;;;;;;5040044;28;20097;-55
2023/09/27 09:52:47;;;;;;;391.70;147.55;;;;;;;;;;5040782;28;20572;-54
2023/09/27 09:55:19;;;;;;;507.77;245.43;;;;;;;;;;5039433;28;20031;-54
2023/09/27 09:57:45;;;;;;;349.90;213.52;;;;;;;;;;5041818;28;20790;-56
2023/09/27 10:00:18;;;;;;;507.65;355.95;;;;;;;;;;5041180;28;20021;-55
2023/09/27 10:02:49;;;;;;;468.95;284.20;;;;;;;;;;5023909;28;20017;-56
2023/09/27 10:05:17;;;;;;;643.95;402.05;;;;;;;;;;5040189;28;20565;-56
2023/09/27 10:07:44;;;;;;;273.67;85.75;;;;;;;;;;5024604;28;20494;-54
2023/09/27 10:10:09;;;;;;;601.55;402.80;;;;;;;;;;5040481;28;20024;-54
2023/09/27 10:12:34;;;;;;;492.67;362.52;;;;;;;;;;5042134;28;20028;-56
2023/09/27 10:15:01;;;;;;;416.48;182.35;;;;;;;;;;5042017;28;20075;-57
2023/09/27 10:17:26;;;;;;;373.25;209.52;;;;;;;;;;5040368;28;20037;-56
2023/09/27 10:20:24;;;;;;;428.10;350.27;;;;;;;;;;5042979;28;20021;-55
2023/09/27 10:22:50;;;;;;;489.65;390.67;;;;;;;;;;5042039;28;20021;-57
2023/09/27 10:25:26;;;;;;;603.67;356.33;;;;;;;;;;5039844;28;20013;-57
2023/09/27 10:28:15;;;;;;;415.05;265.73;;;;;;;;;;5041842;28;20044;-55
2023/09/27 10:30:40;;;;;;;510.80;337.75;;;;;;;;;;5040667;28;20694;-56
2023/09/27 10:33:14;;;;;;;622.80;415.83;;;;;;;;;;5039691;28;20024;-57
2023/09/27 10:35:40;;;;;;;470.90;313.20;;;;;;;;;;5038779;28;20059;-55
2023/09/27 10:38:09;;;;;;;565.35;328.90;;;;;;;;;;5039576;28;20437;-55
2023/09/27 10:40:41;;;;;;;452.73;260.05;;;;;;;;;;5039264;28;20131;-56
2023/09/27 10:43:07;;;;;;;433.25;145.27;;;;;;;;;;5037491;28;20013;-57
2023/09/27 10:45:32;;;;;;;515.88;375.42;;;;;;;;;;5038819;28;20319;-56
2023/09/27 10:48:14;;;;;;;445.47;265.43;;;;;;;;;;5039184;28;20398;-55
2023/09/27 10:50:39;;;;;;;515.47;265.08;;;;;;;;;;5038492;28;20044;-55
2023/09/27 10:53:05;;;;;;;527.22;306.83;;;;;;;;;;5037778;28;20024;-55
2023/09/27 10:55:38;;;;;;;524.78;310.05;;;;;;;;;;5039558;28;20435;-56
2023/09/27 10:58:03;;;;;;;520.40;351.42;;;;;;;;;;5038285;28;20389;-56
2023/09/27 11:00:29;;;;;;;342.70;146.63;;;;;;;;;;5039846;28;20836;-54
2023/09/27 11:02:55;;;;;;;494.30;270.13;;;;;;;;;;5038718;28;20405;-54
2023/09/27 11:05:24;;;;;;;404.55;72.65;;;;;;;;;;5035691;28;20100;-54
2023/09/27 11:07:50;;;;;;;463.10;314.73;;;;;;;;;;5039132;28;20379;-55
2023/09/27 11:10:32;;;;;;;634.95;299.42;;;;;;;;;;5035986;28;20013;-53
2023/09/27 11:13:07;;;;;;;529.03;354.17;;;;;;;;;;5038136;28;20055;-56
2023/09/27 11:15:33;;;;;;;584.97;384.60;;;;;;;;;;5037971;28;20041;-56
2023/09/27 11:17:58;;;;;;;468.43;278.87;;;;;;;;;;5039713;28;20032;-56
2023/09/27 11:20:23;;;;;;;424.73;235.70;;;;;;;;;;5037819;28;20048;-56
2023/09/27 11:22:55;;;;;;;519.10;304.30;;;;;;;;;;5038131;28;20544;-54
2023/09/27 11:25:27;;;;;;;625.67;349.17;;;;;;;;;;5034462;28;20267;-55
2023/09/27 11:27:52;;;;;;;510.58;221.73;;;;;;;;;;5037998;28;20513;-55
2023/09/27 11:30:23;;;;;;;672.30;397.85;;;;;;;;;;5036767;28;20029;-56
2023/09/27 11:32:49;;;;;;;528.28;367.83;;;;;;;;;;5037707;28;20199;-57
2023/09/27 11:35:17;;;;;;;612.20;309.58;;;;;;;;;;5036965;28;20028;-56
2023/09/27 11:37:42;;;;;;;656.45;478.73;;;;;;;;;;5038374;28;20096;-55
2023/09/27 11:40:08;;;;;;;536.37;332.40;;;;;;;;;;5037080;28;20391;-56
2023/09/27 11:42:33;;;;;;;583.40;334.85;;;;;;;;;;5037301;28;20748;-56
2023/09/27 11:45:08;;;;;;;468.23;272.10;;;;;;;;;;5037573;28;20082;-54
2023/09/27 11:47:49;;;;;;;643.78;393.67;;;;;;;;;;5037163;28;20271;-56
2023/09/27 11:50:15;;;;;;;616.80;384.42;;;;;;;;;;5035858;28;20048;-56
2023/09/27 11:52:44;;;;;;;583.88;346.02;;;;;;;;;;5037915;28;20079;-55
2023/09/27 11:55:11;;;;;;;659.67;295.85;;;;;;;;;;5036455;28;20420;-55
2023/09/27 11:57:37;;;;;;;532.63;377.95;;;;;;;;;;5036476;28;20043;-54
2023/09/27 12:00:05;;;;;;;687.40;437.03;;;;;;;;;;5038544;28;20029;-55
2023/09/27 12:02:30;;;;;;;705.78;473.17;;;;;;;;;;5035836;28;20033;-55
2023/09/27 12:04:57;;;;;;;778.20;521.37;;;;;;;;;;5037871;28;20306;-54
2023/09/27 12:07:22;;;;;;;654.00;355.05;;;;;;;;;;5035624;28;20714;-55
2023/09/27 12:09:47;;;;;;;553.90;351.77;;;;;;;;;;5037717;28;20494;-55
2023/09/27 12:12:12;;;;;;;753.93;480.57;;;;;;;;;;5036018;28;20562;-55
2023/09/27 12:14:37;;;;;;;524.53;271.00;;;;;;;;;;5037964;28;20425;-54
2023/09/27 12:17:03;;;;;;;772.20;409.23;;;;;;;;;;5037674;28;20068;-56
2023/09/27 12:19:28;;;;;;;547.70;312.40;;;;;;;;;;5036978;28;20115;-56
2023/09/27 12:21:54;;;;;;;787.42;512.95;;;;;;;;;;5035636;28;20040;-55
2023/09/27 12:24:19;;;;;;;891.45;514.80;;;;;;;;;;5036193;28;20442;-54
2023/09/27 12:26:45;;;;;;;806.25;462.83;;;;;;;;;;5038089;28;20414;-54
2023/09/27 12:29:10;;;;;;;487.90;228.00;;;;;;;;;;5036553;28;20028;-54
2023/09/27 12:31:35;;;;;;;745.90;433.83;;;;;;;;;;5037487;28;20040;-55
2023/09/27 12:34:00;;;;;;;981.30;604.47;;;;;;;;;;5019630;28;20471;-55
2023/09/27 12:36:26;;;;;;;664.60;394.77;;;;;;;;;;5037365;28;20329;-55
2023/09/27 12:38:51;;;;;;;1784.50;720.93;;;;;;;;;;5036939;28;20676;-56
2023/09/27 12:41:17;;;;;;;725.93;316.73;;;;;;;;;;5035549;28;20295;-54
2023/09/27 12:43:43;;;;;;;682.17;397.90;;;;;;;;;;5036379;28;20509;-56
2023/09/27 12:46:09;;;;;;;741.78;384.95;;;;;;;;;;5037095;28;20029;-54
2023/09/27 12:48:34;;;;;;;567.60;340.92;;;;;;;;;;5037578;28;20018;-57
2023/09/27 12:50:59;;;;;;;676.03;459.40;;;;;;;;;;5036904;28;20025;-55
2023/09/27 12:53:25;;;;;;;887.63;585.13;;;;;;;;;;5037099;28;20040;-56
2023/09/27 12:55:51;;;;;;;613.10;458.50;;;;;;;;;;5037153;28;20025;-55
2023/09/27 12:58:17;;;;;;;595.00;202.02;;;;;;;;;;5036041;28;20463;-56
2023/09/27 13:00:42;;;;;;;878.57;504.97;;;;;;;;;;5036553;28;20324;-55
2023/09/27 13:03:07;;;;;;;665.65;373.08;;;;;;;;;;5036677;28;20017;-55
2023/09/27 13:05:36;;;;;;;594.50;353.50;;;;;;;;;;5016612;28;20040;-54
2023/09/27 13:08:02;;;;;;;620.15;394.73;;;;;;;;;;5036813;28;20044;-57
2023/09/27 13:10:27;;;;;;;498.95;205.60;;;;;;;;;;5035130;28;20029;-54
2023/09/27 13:12:52;;;;;;;459.25;195.75;;;;;;;;;;5037789;28;20250;-56
2023/09/27 13:15:17;;;;;;;596.03;337.60;;;;;;;;;;5035220;28;20538;-54
2023/09/27 13:17:43;;;;;;;407.73;216.38;;;;;;;;;;5036843;28;20590;-55
2023/09/27 13:20:09;;;;;;;540.37;355.37;;;;;;;;;;5037273;28;20025;-55
2023/09/27 13:22:35;;;;;;;540.08;296.50;;;;;;;;;;5037734;28;20112;-60
2023/09/27 13:25:00;;;;;;;528.43;320.10;;;;;;;;;;5037362;28;20096;-55
2023/09/27 13:27:26;;;;;;;617.65;243.85;;;;;;;;;;5035067;28;20098;-56
2023/09/27 13:29:51;;;;;;;679.55;311.33;;;;;;;;;;5037006;28;20028;-56
2023/09/27 13:32:16;;;;;;;418.67;98.72;;;;;;;;;;5036091;28;20104;-55
2023/09/27 13:34:42;;;;;;;358.23;78.10;;;;;;;;;;5039675;28;20195;-55
2023/09/27 13:37:07;;;;;;;340.47;76.67;;;;;;;;;;5040147;28;20579;-55
2023/09/27 13:39:32;;;;;;;365.47;79.93;;;;;;;;;;5039482;28;20040;-55
2023/09/27 13:41:57;;;;;;;368.00;100.83;;;;;;;;;;5040101;28;20458;-56
2023/09/27 13:44:23;;;;;;;490.87;85.77;;;;;;;;;;5038697;28;20275;-56
2023/09/27 13:46:49;;;;;;;254.98;61.65;;;;;;;;;;5039766;28;20275;-55
2023/09/27 13:49:14;;;;;;;316.45;67.47;;;;;;;;;;5039009;28;20025;-54